Time,TemperatureF,DewpointF,PressureIn,WindDirection,WindDirectionDegrees,WindSpeedMPH,WindSpeedGustMPH,Humidity,HourlyPrecipIn,Conditions,Clouds,dailyrainin,SolarRadiationWatts/m^2,SoftwareType,DateUTC
2015-01-26 00:00:00,37.9,20.9,30.47,WSW,248,2.3,2.3,50,0.00,CLR,FEW,0.00,0.0,WeatherDisplay:10.37,2015-01-26 08:00:00,
2015-01-26 00:05:00,37.6,20.6,30.47,WSW,248,0.0,0.0,50,0.00,CLR,FEW,0.00,0.0,WeatherDisplay:10.37,2015-01-26 08:05:00,
2015-01-26 00:10:00,37.4,20.9,30.47,West,270,2.3,2.3,51,0.00,CLR,FEW,0.00,0.0,WeatherDisplay:10.37,2015-01-26 08:10:00,
2015-01-26 00:15:00,36.9,20.9,30.47,West,270,2.3,2.3,52,0.00,CLR,FEW,0.00,0.0,WeatherDisplay:10.37,2015-01-26 08:15:00,
2015-01-26 00:20:00,36.5,21.0,30.47,West,270,2.4,2.4,53,0.00,CLR,FEW,0.00,0.0,WeatherDisplay:10.37,2015-01-26 08:20:00,
2015-01-26 00:25:00,36.3,20.8,30.47,West,270,2.3,2.3,53,0.00,CLR,FEW,0.00,0.0,WeatherDisplay:10.37,2015-01-26 08:25:00,
2015-01-26 00:30:00,36.1,20.6,30.47,West,270,1.1,1.4,53,0.00,CLR,FEW,0.00,0.0,WeatherDisplay:10.37,2015-01-26 08:30:00,
2015-01-26 00:35:00,35.6,20.6,30.44,WNW,292,2.9,2.9,54,0.00,CLR,FEW,0.00,0.0,WeatherDisplay:10.37,2015-01-26 08:35:00,
2015-01-26 00:40:00,35.6,21.4,30.44,West,270,3.5,3.5,56,0.00,CLR,FEW,0.00,0.0,WeatherDisplay:10.37,2015-01-26 08:40:00,
2015-01-26 00:45:00,36.0,21.3,30.44,West,270,2.3,2.3,55,0.00,CLR,FEW,0.00,0.0,WeatherDisplay:10.37,2015-01-26 08:45:00,
2015-01-26 00:50:00,35.8,20.3,30.44,West,270,1.1,1.4,53,0.00,CLR,FEW,0.00,0.0,WeatherDisplay:10.37,2015-01-26 08:50:00,
2015-01-26 00:55:00,35.8,20.3,30.44,WSW,248,2.4,0.0,53,0.00,CLR,FEW,0.00,0.0,WeatherDisplay:10.37,2015-01-26 08:55:00,
2015-01-26 01:00:00,35.6,20.6,30.44,West,270,2.6,0.0,54,0.00,CLR,FEW,0.00,0.0,WeatherDisplay:10.37,2015-01-26 09:00:00,
2015-01-26 01:05:00,35.6,21.0,30.44,West,270,2.3,2.3,55,0.00,CLR,FEW,0.00,0.0,WeatherDisplay:10.37,2015-01-26 09:05:00,
2015-01-26 01:10:00,35.6,21.0,30.44,West,270,1.1,1.4,55,0.00,CLR,FEW,0.00,0.0,WeatherDisplay:10.37,2015-01-26 09:10:00,
2015-01-26 01:15:00,35.6,21.4,30.44,WSW,248,2.3,2.3,56,0.00,CLR,FEW,0.00,0.0,WeatherDisplay:10.37,2015-01-26 09:15:00,
2015-01-26 01:20:00,35.6,21.0,30.41,West,270,2.3,2.3,55,0.00,CLR,FEW,0.00,0.0,WeatherDisplay:10.37,2015-01-26 09:20:00,
2015-01-26 01:25:00,35.6,21.4,30.41,West,270,2.3,2.3,56,0.00,CLR,FEW,0.00,0.0,WeatherDisplay:10.37,2015-01-26 09:25:00,
2015-01-26 01:30:00,35.4,20.4,30.41,West,270,0.0,0.0,54,0.00,CLR,FEW,0.00,0.0,WeatherDisplay:10.37,2015-01-26 09:30:00,
2015-01-26 01:35:00,35.1,20.9,30.44,West,270,0.0,0.0,56,0.00,CLR,FEW,0.00,0.0,WeatherDisplay:10.37,2015-01-26 09:35:00,
2015-01-26 01:40:00,34.9,20.3,30.44,West,270,0.0,0.0,55,0.00,CLR,FEW,0.00,0.0,WeatherDisplay:10.37,2015-01-26 09:40:00,
2015-01-26 01:45:00,34.7,21.0,30.44,WNW,292,2.9,2.9,57,0.00,CLR,FEW,0.00,0.0,WeatherDisplay:10.37,2015-01-26 09:45:00,
2015-01-26 01:50:00,34.7,21.0,30.44,WNW,292,2.3,2.3,57,0.00,CLR,FEW,0.00,0.0,WeatherDisplay:10.37,2015-01-26 09:50:00,
2015-01-26 01:55:00,34.7,21.8,30.44,West,270,2.4,2.4,59,0.00,CLR,FEW,0.00,0.0,WeatherDisplay:10.37,2015-01-26 09:55:00,
2015-01-26 02:00:00,34.7,21.4,30.44,West,270,2.3,2.3,58,0.00,CLR,FEW,0.00,0.0,WeatherDisplay:10.37,2015-01-26 10:00:00,
2015-01-26 02:05:00,34.7,21.0,30.44,West,270,0.0,0.0,57,0.00,CLR,FEW,0.00,0.0,WeatherDisplay:10.37,2015-01-26 10:05:00,
2015-01-26 02:10:00,34.5,20.4,30.44,West,270,0.0,0.0,56,0.00,CLR,FEW,0.00,0.0,WeatherDisplay:10.37,2015-01-26 10:10:00,
2015-01-26 02:15:00,34.5,21.2,30.44,West,270,0.0,0.0,58,0.00,CLR,FEW,0.00,0.0,WeatherDisplay:10.37,2015-01-26 10:15:00,
2015-01-26 02:20:00,34.3,21.1,30.44,West,270,0.0,0.0,58,0.00,CLR,FEW,0.00,0.0,WeatherDisplay:10.37,2015-01-26 10:20:00,
2015-01-26 02:25:00,34.0,21.1,30.44,WNW,292,2.6,2.6,59,0.00,CLR,FEW,0.00,0.0,WeatherDisplay:10.37,2015-01-26 10:25:00,
2015-01-26 02:30:00,34.3,21.9,30.44,West,270,2.6,2.6,60,0.00,CLR,FEW,0.00,0.0,WeatherDisplay:10.37,2015-01-26 10:30:00,
2015-01-26 02:35:00,34.3,21.5,30.47,West,270,2.3,2.3,59,0.00,CLR,FEW,0.00,0.0,WeatherDisplay:10.37,2015-01-26 10:35:00,
2015-01-26 02:40:00,34.3,21.5,30.47,West,270,2.4,2.4,59,0.00,CLR,FEW,0.00,0.0,WeatherDisplay:10.37,2015-01-26 10:40:00,
2015-01-26 02:45:00,34.5,21.7,30.47,West,270,2.3,2.3,59,0.00,CLR,FEW,0.00,0.0,WeatherDisplay:10.37,2015-01-26 10:45:00,
2015-01-26 02:50:00,34.5,21.7,30.44,West,270,2.3,2.3,59,0.00,CLR,FEW,0.00,0.0,WeatherDisplay:10.37,2015-01-26 10:50:00,
2015-01-26 02:55:00,34.3,21.1,30.44,West,270,0.0,0.0,58,0.00,CLR,FEW,0.00,0.0,WeatherDisplay:10.37,2015-01-26 10:55:00,
2015-01-26 03:00:00,34.2,21.3,30.44,West,270,2.4,2.4,59,0.00,CLR,FEW,0.00,0.0,WeatherDisplay:10.37,2015-01-26 11:00:00,
2015-01-26 03:05:00,34.2,21.3,30.44,West,270,2.3,2.3,59,0.00,CLR,FEW,0.00,0.0,WeatherDisplay:10.37,2015-01-26 11:05:00,
2015-01-26 03:10:00,34.3,21.9,30.44,West,270,3.5,3.5,60,0.00,CLR,FEW,0.00,0.0,WeatherDisplay:10.37,2015-01-26 11:10:00,
2015-01-26 03:15:00,34.5,21.2,30.44,West,270,2.4,2.4,58,0.00,CLR,FEW,0.00,0.0,WeatherDisplay:10.37,2015-01-26 11:15:00,
2015-01-26 03:20:00,34.3,21.5,30.44,West,270,2.3,2.3,59,0.00,CLR,FEW,0.00,0.0,WeatherDisplay:10.37,2015-01-26 11:20:00,
2015-01-26 03:25:00,34.2,21.3,30.44,West,270,2.3,2.3,59,0.00,CLR,FEW,0.00,0.0,WeatherDisplay:10.37,2015-01-26 11:25:00,
2015-01-26 03:30:00,34.2,21.3,30.44,West,270,2.3,2.4,59,0.00,CLR,FEW,0.00,0.0,WeatherDisplay:10.37,2015-01-26 11:30:00,
2015-01-26 03:35:00,34.2,21.3,30.44,West,270,2.9,2.9,59,0.00,CLR,FEW,0.00,0.0,WeatherDisplay:10.37,2015-01-26 11:35:00,
2015-01-26 03:40:00,34.2,21.3,30.44,West,270,2.3,2.6,59,0.00,CLR,FEW,0.00,0.0,WeatherDisplay:10.37,2015-01-26 11:40:00,
2015-01-26 03:45:00,34.0,20.7,30.44,West,270,1.4,1.4,58,0.00,CLR,FEW,0.00,0.0,WeatherDisplay:10.37,2015-01-26 11:45:00,
2015-01-26 03:50:00,33.8,21.0,30.44,West,270,2.0,2.0,59,0.00,CLR,FEW,0.00,0.0,WeatherDisplay:10.37,2015-01-26 11:50:00,
2015-01-26 03:55:00,33.8,21.0,30.44,WNW,292,2.3,2.3,59,0.00,CLR,FEW,0.00,0.0,WeatherDisplay:10.37,2015-01-26 11:55:00,
2015-01-26 04:00:00,33.8,21.0,30.44,West,270,0.0,0.0,59,0.00,CLR,FEW,0.00,0.0,WeatherDisplay:10.37,2015-01-26 12:00:00,
2015-01-26 04:05:00,33.4,21.0,30.44,WNW,292,2.3,2.3,60,0.00,CLR,FEW,0.00,0.0,WeatherDisplay:10.37,2015-01-26 12:05:00,
2015-01-26 04:10:00,33.4,21.4,30.44,WNW,292,2.4,2.4,61,0.00,CLR,FEW,0.00,0.0,WeatherDisplay:10.37,2015-01-26 12:10:00,
2015-01-26 04:15:00,33.6,21.2,30.44,WSW,248,2.9,0.0,60,0.00,CLR,FEW,0.00,0.0,WeatherDisplay:10.37,2015-01-26 12:15:00,
2015-01-26 04:20:00,33.4,21.0,30.44,SSW,202,3.8,3.8,60,0.00,CLR,FEW,0.00,0.0,WeatherDisplay:10.37,2015-01-26 12:20:00,
2015-01-26 04:25:00,33.8,21.8,30.44,West,270,3.5,3.5,61,0.00,CLR,FEW,0.00,0.0,WeatherDisplay:10.37,2015-01-26 12:25:00,
2015-01-26 04:30:00,34.0,21.1,30.44,WSW,248,1.1,0.0,59,0.00,CLR,FEW,0.00,0.0,WeatherDisplay:10.37,2015-01-26 12:30:00,
2015-01-26 04:35:00,34.2,21.3,30.41,West,270,3.5,3.5,59,0.00,CLR,FEW,0.00,0.0,WeatherDisplay:10.37,2015-01-26 12:35:00,
2015-01-26 04:40:00,34.2,20.9,30.41,WSW,248,2.3,2.3,58,0.00,CLR,FEW,0.00,0.0,WeatherDisplay:10.37,2015-01-26 12:40:00,
2015-01-26 04:45:00,33.6,20.8,30.41,West,270,3.5,3.5,59,0.00,CLR,FEW,0.00,0.0,WeatherDisplay:10.37,2015-01-26 12:45:00,
2015-01-26 04:50:00,33.6,21.2,30.41,West,270,2.9,2.9,60,0.00,CLR,FEW,0.00,0.0,WeatherDisplay:10.37,2015-01-26 12:50:00,
2015-01-26 04:55:00,33.8,20.6,30.41,WSW,248,1.6,1.6,58,0.00,CLR,FEW,0.00,0.0,WeatherDisplay:10.37,2015-01-26 12:55:00,
2015-01-26 05:00:00,34.2,20.9,30.41,WNW,292,2.4,2.6,58,0.00,CLR,FEW,0.00,0.0,WeatherDisplay:10.37,2015-01-26 13:00:00,
2015-01-26 05:05:00,34.2,20.9,30.41,WSW,248,2.3,2.3,58,0.00,CLR,FEW,0.00,0.0,WeatherDisplay:10.37,2015-01-26 13:05:00,
2015-01-26 05:10:00,34.0,20.7,30.41,West,270,2.3,2.3,58,0.00,CLR,FEW,0.00,0.0,WeatherDisplay:10.37,2015-01-26 13:10:00,
2015-01-26 05:15:00,34.0,20.7,30.41,WSW,248,2.4,2.4,58,0.00,CLR,FEW,0.00,0.0,WeatherDisplay:10.37,2015-01-26 13:15:00,
2015-01-26 05:20:00,33.6,20.8,30.41,West,270,2.4,2.9,59,0.00,CLR,FEW,0.00,0.0,WeatherDisplay:10.37,2015-01-26 13:20:00,
2015-01-26 05:25:00,33.6,20.8,30.41,WSW,248,1.4,1.4,59,0.00,CLR,FEW,0.00,0.0,WeatherDisplay:10.37,2015-01-26 13:25:00,
2015-01-26 05:30:00,33.4,20.6,30.41,WSW,248,2.3,2.3,59,0.00,CLR,FEW,0.00,0.0,WeatherDisplay:10.37,2015-01-26 13:30:00,
2015-01-26 05:35:00,33.6,21.2,30.41,WSW,248,2.3,2.3,60,0.00,CLR,FEW,0.00,0.0,WeatherDisplay:10.37,2015-01-26 13:35:00,
2015-01-26 05:40:00,33.4,20.6,30.41,WSW,248,2.3,2.3,59,0.00,CLR,FEW,0.00,0.0,WeatherDisplay:10.37,2015-01-26 13:40:00,
2015-01-26 05:45:00,33.6,21.2,30.41,WSW,248,3.5,3.5,60,0.00,CLR,FEW,0.00,0.0,WeatherDisplay:10.37,2015-01-26 13:45:00,
2015-01-26 05:50:00,33.6,20.8,30.38,WSW,248,0.0,0.0,59,0.00,CLR,FEW,0.00,0.0,WeatherDisplay:10.37,2015-01-26 13:50:00,
2015-01-26 05:55:00,33.4,20.6,30.38,WSW,248,1.1,1.1,59,0.00,CLR,FEW,0.00,0.0,WeatherDisplay:10.37,2015-01-26 13:55:00,
2015-01-26 06:00:00,33.1,20.7,30.38,West,270,2.4,2.4,60,0.00,CLR,FEW,0.00,0.0,WeatherDisplay:10.37,2015-01-26 14:00:00,
2015-01-26 06:05:00,33.1,21.1,30.41,WSW,248,2.4,2.4,61,0.00,CLR,FEW,0.00,0.0,WeatherDisplay:10.37,2015-01-26 14:05:00,
2015-01-26 06:10:00,33.1,21.1,30.41,West,270,2.6,2.6,61,0.00,CLR,FEW,0.00,0.0,WeatherDisplay:10.37,2015-01-26 14:10:00,
2015-01-26 06:15:00,33.1,21.1,30.41,West,270,2.3,2.3,61,0.00,CLR,FEW,0.00,0.0,WeatherDisplay:10.37,2015-01-26 14:15:00,
2015-01-26 06:20:00,33.1,20.7,30.41,West,270,1.1,0.0,60,0.00,CLR,FEW,0.00,0.0,WeatherDisplay:10.37,2015-01-26 14:20:00,
2015-01-26 06:25:00,32.9,20.5,30.41,West,270,2.3,2.3,60,0.00,CLR,FEW,0.00,0.0,WeatherDisplay:10.37,2015-01-26 14:25:00,
2015-01-26 06:30:00,32.7,20.7,30.41,West,270,1.1,1.4,61,0.00,CLR,FEW,0.00,0.0,WeatherDisplay:10.37,2015-01-26 14:30:00,
2015-01-26 06:35:00,32.7,21.1,30.38,West,270,3.5,3.5,62,0.00,CLR,FEW,0.00,0.0,WeatherDisplay:10.37,2015-01-26 14:35:00,
2015-01-26 06:40:00,32.7,20.7,30.38,West,270,0.0,0.0,61,0.00,CLR,FEW,0.00,0.0,WeatherDisplay:10.37,2015-01-26 14:40:00,
2015-01-26 06:45:00,32.5,20.6,30.38,West,270,2.3,2.3,61,0.00,CLR,FEW,0.00,0.0,WeatherDisplay:10.37,2015-01-26 14:45:00,
2015-01-26 06:50:00,32.2,21.0,30.38,WNW,292,2.3,2.3,63,0.00,CLR,FEW,0.00,0.0,WeatherDisplay:10.37,2015-01-26 14:50:00,
2015-01-26 06:55:00,32.2,20.6,30.38,WNW,292,0.0,0.0,62,0.00,CLR,FEW,0.00,0.0,WeatherDisplay:10.37,2015-01-26 14:55:00,
2015-01-26 07:00:00,32.0,21.2,30.38,WNW,292,2.3,2.3,64,0.00,OVC,FEW,0.00,0.0,WeatherDisplay:10.37,2015-01-26 15:00:00,
2015-01-26 07:05:00,31.8,21.0,30.38,West,270,1.1,0.0,64,0.00,OVC,FEW,0.00,0.0,WeatherDisplay:10.37,2015-01-26 15:05:00,
2015-01-26 07:10:00,31.6,20.8,30.38,WNW,292,2.9,0.0,64,0.00,OVC,FEW,0.00,0.0,WeatherDisplay:10.37,2015-01-26 15:10:00,
2015-01-26 07:15:00,31.5,20.7,30.38,WNW,292,0.0,0.0,64,0.00,OVC,FEW,0.00,0.0,WeatherDisplay:10.37,2015-01-26 15:15:00,
2015-01-26 07:20:00,31.5,21.4,30.38,WNW,292,2.3,2.3,66,0.00,OVC,FEW,0.00,0.0,WeatherDisplay:10.37,2015-01-26 15:20:00,
2015-01-26 07:25:00,31.5,21.8,30.38,WNW,292,2.3,2.3,67,0.00,OVC,FEW,0.00,0.0,WeatherDisplay:10.37,2015-01-26 15:25:00,
2015-01-26 07:30:00,31.3,21.2,30.38,West,270,1.1,1.1,66,0.00,OVC,FEW,0.00,0.0,WeatherDisplay:10.37,2015-01-26 15:30:00,
2015-01-26 07:35:00,31.5,21.8,30.38,West,270,2.3,2.3,67,0.00,OVC,FEW,0.00,0.0,WeatherDisplay:10.37,2015-01-26 15:35:00,
2015-01-26 07:40:00,31.5,21.8,30.38,West,270,2.4,2.4,67,0.00,OVC,FEW,0.00,0.0,WeatherDisplay:10.37,2015-01-26 15:40:00,
2015-01-26 07:45:00,31.5,21.4,30.38,West,270,0.0,0.0,66,0.00,OVC,FEW,0.00,0.0,WeatherDisplay:10.37,2015-01-26 15:45:00,
2015-01-26 07:50:00,31.8,21.7,30.38,West,270,0.0,0.0,66,0.00,OVC,FEW,0.00,0.0,WeatherDisplay:10.37,2015-01-26 15:50:00,
2015-01-26 07:55:00,32.2,21.7,30.38,West,270,0.0,0.0,65,0.00,OVC,FEW,0.00,0.0,WeatherDisplay:10.37,2015-01-26 15:55:00,
2015-01-26 08:00:00,32.7,22.2,30.38,West,270,0.0,0.0,65,0.00,OVC,FEW,0.00,0.0,WeatherDisplay:10.37,2015-01-26 16:00:00,
2015-01-26 08:05:00,33.4,22.9,30.38,West,270,0.0,0.0,65,0.00,SCT,FEW,0.00,100.0,WeatherDisplay:10.37,2015-01-26 16:05:00,
2015-01-26 08:10:00,34.3,23.4,30.38,West,270,0.0,0.0,64,0.00,FEW,,0.00,100.0,WeatherDisplay:10.37,2015-01-26 16:10:00,
2015-01-26 08:15:00,35.4,24.1,30.38,West,270,0.0,0.0,63,0.00,FEW,,0.00,100.0,WeatherDisplay:10.37,2015-01-26 16:15:00,
2015-01-26 08:20:00,36.3,24.9,30.35,West,270,0.0,0.0,63,0.00,CLR,FEW,0.00,100.0,WeatherDisplay:10.37,2015-01-26 16:20:00,
2015-01-26 08:25:00,37.8,23.9,30.35,WSW,248,0.0,0.0,57,0.00,CLR,FEW,0.00,100.0,WeatherDisplay:10.37,2015-01-26 16:25:00,
2015-01-26 08:30:00,38.8,24.9,30.35,WSW,248,1.4,0.0,57,0.00,CLR,FEW,0.00,100.0,WeatherDisplay:10.37,2015-01-26 16:30:00,
2015-01-26 08:35:00,39.4,24.1,30.35,SSW,202,0.0,0.0,54,0.00,CLR,FEW,0.00,100.0,WeatherDisplay:10.37,2015-01-26 16:35:00,
2015-01-26 08:40:00,39.6,24.3,30.35,South,180,0.0,0.0,54,0.00,CLR,FEW,0.00,100.0,WeatherDisplay:10.37,2015-01-26 16:40:00,
2015-01-26 08:45:00,40.6,24.4,30.35,SSE,158,1.1,1.1,52,0.00,CLR,FEW,0.00,200.0,WeatherDisplay:10.37,2015-01-26 16:45:00,
2015-01-26 08:50:00,41.2,23.9,30.35,SE,135,0.0,0.0,50,0.00,CLR,FEW,0.00,200.0,WeatherDisplay:10.37,2015-01-26 16:50:00,
2015-01-26 08:55:00,42.1,23.3,30.35,ESE,112,1.1,0.0,47,0.00,CLR,FEW,0.00,200.0,WeatherDisplay:10.37,2015-01-26 16:55:00,
2015-01-26 09:00:00,42.8,22.4,30.35,East,90,2.3,2.3,44,0.00,CLR,FEW,0.00,200.0,WeatherDisplay:10.37,2015-01-26 17:00:00,
2015-01-26 09:05:00,43.5,21.9,30.38,East,90,2.4,2.4,42,0.00,CLR,FEW,0.00,200.0,WeatherDisplay:10.37,2015-01-26 17:05:00,
2015-01-26 09:10:00,44.1,22.4,30.38,ESE,112,2.3,2.3,42,0.00,OVC,FEW,0.00,200.0,WeatherDisplay:10.37,2015-01-26 17:10:00,
2015-01-26 09:15:00,45.0,23.2,30.38,ESE,112,2.6,2.6,42,0.00,OVC,FEW,0.00,200.0,WeatherDisplay:10.37,2015-01-26 17:15:00,
2015-01-26 09:20:00,45.5,22.5,30.38,ESE,112,2.3,2.6,40,0.00,OVC,FEW,0.00,300.0,WeatherDisplay:10.37,2015-01-26 17:20:00,
2015-01-26 09:25:00,45.9,22.3,30.38,ESE,112,2.9,2.9,39,0.00,OVC,FEW,0.00,300.0,WeatherDisplay:10.37,2015-01-26 17:25:00,
2015-01-26 09:30:00,46.0,22.4,30.38,ESE,112,2.9,2.9,39,0.00,OVC,FEW,0.00,300.0,WeatherDisplay:10.37,2015-01-26 17:30:00,
2015-01-26 09:35:00,46.4,22.1,30.38,ESE,112,3.5,3.5,38,0.00,OVC,FEW,0.00,300.0,WeatherDisplay:10.37,2015-01-26 17:35:00,
2015-01-26 09:40:00,46.8,22.5,30.38,SSE,158,3.5,3.5,38,0.00,OVC,FEW,0.00,300.0,WeatherDisplay:10.37,2015-01-26 17:40:00,
2015-01-26 09:45:00,46.8,22.5,30.38,ESE,112,3.6,3.6,38,0.00,OVC,FEW,0.00,300.0,WeatherDisplay:10.37,2015-01-26 17:45:00,
2015-01-26 09:50:00,46.9,22.6,30.38,ESE,112,4.6,4.6,38,0.00,OVC,FEW,0.00,300.0,WeatherDisplay:10.37,2015-01-26 17:50:00,
2015-01-26 09:55:00,47.3,22.9,30.38,ESE,112,3.6,3.6,38,0.00,OVC,FEW,0.00,300.0,WeatherDisplay:10.37,2015-01-26 17:55:00,
2015-01-26 10:00:00,47.7,22.6,30.38,ESE,112,3.5,3.5,37,0.00,OVC,FEW,0.00,300.0,WeatherDisplay:10.37,2015-01-26 18:00:00,
2015-01-26 10:05:00,47.7,22.6,30.38,SSE,158,3.5,3.5,37,0.00,OVC,FEW,0.00,300.0,WeatherDisplay:10.37,2015-01-26 18:05:00,
2015-01-26 10:10:00,48.2,23.1,30.38,ESE,112,2.6,2.6,37,0.00,OVC,FEW,0.00,300.0,WeatherDisplay:10.37,2015-01-26 18:10:00,
2015-01-26 10:15:00,48.7,23.6,30.38,ESE,112,3.5,3.5,37,0.00,OVC,FEW,0.00,300.0,WeatherDisplay:10.37,2015-01-26 18:15:00,
2015-01-26 10:20:00,49.3,23.4,30.38,ESE,112,2.6,2.6,36,0.00,OVC,FEW,0.00,300.0,WeatherDisplay:10.37,2015-01-26 18:20:00,
2015-01-26 10:25:00,49.6,23.7,30.38,ESE,112,3.1,3.1,36,0.00,OVC,FEW,0.00,300.0,WeatherDisplay:10.37,2015-01-26 18:25:00,
2015-01-26 10:30:00,49.6,23.7,30.38,ESE,112,3.5,3.5,36,0.00,OVC,FEW,0.00,300.0,WeatherDisplay:10.37,2015-01-26 18:30:00,
2015-01-26 10:35:00,49.6,23.1,30.38,ESE,112,2.6,2.6,35,0.00,OVC,FEW,0.00,300.0,WeatherDisplay:10.37,2015-01-26 18:35:00,
2015-01-26 10:40:00,49.6,23.1,30.38,East,90,2.3,2.3,35,0.00,OVC,FEW,0.00,300.0,WeatherDisplay:10.37,2015-01-26 18:40:00,
2015-01-26 10:45:00,49.6,23.1,30.38,SSE,158,3.5,3.5,35,0.00,OVC,FEW,0.00,300.0,WeatherDisplay:10.37,2015-01-26 18:45:00,
2015-01-26 10:50:00,50.0,22.7,30.38,ESE,112,2.4,2.4,34,0.00,OVC,FEW,0.00,400.0,WeatherDisplay:10.37,2015-01-26 18:50:00,
2015-01-26 10:55:00,49.6,22.4,30.38,ESE,112,3.5,3.5,34,0.00,OVC,FEW,0.00,300.0,WeatherDisplay:10.37,2015-01-26 18:55:00,
2015-01-26 11:00:00,49.3,22.1,30.38,ENE,68,2.4,0.0,34,0.00,OVC,FEW,0.00,300.0,WeatherDisplay:10.37,2015-01-26 19:00:00,
2015-01-26 11:05:00,49.1,22.6,30.38,ESE,112,0.0,0.0,35,0.00,OVC,FEW,0.00,300.0,WeatherDisplay:10.37,2015-01-26 19:05:00,
2015-01-26 11:10:00,48.9,22.4,30.38,ESE,112,0.0,0.0,35,0.00,OVC,FEW,0.00,300.0,WeatherDisplay:10.37,2015-01-26 19:10:00,
2015-01-26 11:15:00,48.7,21.6,30.38,ESE,112,2.3,2.3,34,0.00,OVC,FEW,0.00,400.0,WeatherDisplay:10.37,2015-01-26 19:15:00,
2015-01-26 11:20:00,48.9,22.4,30.38,East,90,1.1,0.0,35,0.00,OVC,FEW,0.00,500.0,WeatherDisplay:10.37,2015-01-26 19:20:00,
2015-01-26 11:25:00,49.3,22.1,30.38,East,90,2.3,2.3,34,0.00,OVC,FEW,0.00,500.0,WeatherDisplay:10.37,2015-01-26 19:25:00,
2015-01-26 11:30:00,49.6,23.1,30.38,ESE,112,3.1,3.1,35,0.00,OVC,FEW,0.00,600.0,WeatherDisplay:10.37,2015-01-26 19:30:00,
2015-01-26 11:35:00,50.2,22.1,30.32,ENE,68,3.5,3.5,33,0.00,OVC,FEW,0.00,600.0,WeatherDisplay:10.37,2015-01-26 19:35:00,
2015-01-26 11:40:00,50.5,22.5,30.32,ENE,68,3.5,3.5,33,0.00,OVC,FEW,0.00,500.0,WeatherDisplay:10.37,2015-01-26 19:40:00,
2015-01-26 11:45:00,50.7,22.6,30.32,ESE,112,1.1,1.4,33,0.00,OVC,FEW,0.00,500.0,WeatherDisplay:10.37,2015-01-26 19:45:00,
2015-01-26 11:50:00,51.3,23.1,30.32,ESE,112,2.3,2.4,33,0.00,OVC,FEW,0.00,500.0,WeatherDisplay:10.37,2015-01-26 19:50:00,
2015-01-26 11:55:00,51.8,22.8,30.32,ESE,112,2.3,2.3,32,0.00,OVC,FEW,0.00,500.0,WeatherDisplay:10.37,2015-01-26 19:55:00,
2015-01-26 12:00:00,52.3,22.6,30.32,WNW,292,2.3,2.6,31,0.00,OVC,FEW,0.00,500.0,WeatherDisplay:10.37,2015-01-26 20:00:00,
2015-01-26 12:05:00,53.1,23.2,30.35,ENE,68,3.5,3.5,31,0.00,OVC,FEW,0.00,400.0,WeatherDisplay:10.37,2015-01-26 20:05:00,
2015-01-26 12:10:00,53.4,23.5,30.35,NW,315,3.5,3.5,31,0.00,OVC,FEW,0.00,400.0,WeatherDisplay:10.37,2015-01-26 20:10:00,
2015-01-26 12:15:00,53.4,22.7,30.35,NNE,22,5.8,5.8,30,0.00,OVC,FEW,0.00,400.0,WeatherDisplay:10.37,2015-01-26 20:15:00,
2015-01-26 12:20:00,53.2,22.6,30.35,SW,225,3.5,3.5,30,0.00,OVC,FEW,0.00,400.0,WeatherDisplay:10.37,2015-01-26 20:20:00,
2015-01-26 12:25:00,53.4,22.7,30.35,NNW,338,3.5,3.5,30,0.00,OVC,FEW,0.00,400.0,WeatherDisplay:10.37,2015-01-26 20:25:00,
2015-01-26 12:30:00,53.1,21.6,30.35,East,90,4.6,4.6,29,0.00,OVC,FEW,0.00,400.0,WeatherDisplay:10.37,2015-01-26 20:30:00,
2015-01-26 12:35:00,53.6,22.1,30.30,ESE,112,3.5,3.5,29,0.00,OVC,FEW,0.00,500.0,WeatherDisplay:10.37,2015-01-26 20:35:00,
2015-01-26 12:40:00,54.0,22.4,30.30,NE,45,2.6,2.6,29,0.00,OVC,FEW,0.00,600.0,WeatherDisplay:10.37,2015-01-26 20:40:00,
2015-01-26 12:45:00,54.3,21.9,30.30,NE,45,3.3,3.3,28,0.00,OVC,FEW,0.00,600.0,WeatherDisplay:10.37,2015-01-26 20:45:00,
2015-01-26 12:50:00,54.3,22.7,30.30,ESE,112,2.3,2.3,29,0.00,OVC,FEW,0.00,500.0,WeatherDisplay:10.37,2015-01-26 20:50:00,
2015-01-26 12:55:00,54.3,22.7,30.30,ESE,112,3.3,3.3,29,0.00,OVC,FEW,0.00,500.0,WeatherDisplay:10.37,2015-01-26 20:55:00,
2015-01-26 13:00:00,54.7,23.0,30.30,ENE,68,2.6,0.0,29,0.00,OVC,FEW,0.00,600.0,WeatherDisplay:10.37,2015-01-26 21:00:00,
2015-01-26 13:05:00,54.7,23.0,30.30,ENE,68,2.3,2.3,29,0.00,OVC,FEW,0.00,600.0,WeatherDisplay:10.37,2015-01-26 21:05:00,
2015-01-26 13:10:00,55.0,22.5,30.30,ESE,112,2.4,2.4,28,0.00,OVC,FEW,0.00,600.0,WeatherDisplay:10.37,2015-01-26 21:10:00,
2015-01-26 13:15:00,55.4,22.8,30.30,WSW,248,2.3,2.3,28,0.00,OVC,FEW,0.00,600.0,WeatherDisplay:10.37,2015-01-26 21:15:00,
2015-01-26 13:20:00,56.1,22.6,30.26,East,90,2.6,2.6,27,0.00,OVC,FEW,0.00,600.0,WeatherDisplay:10.37,2015-01-26 21:20:00,
2015-01-26 13:25:00,56.8,23.2,30.26,ESE,112,3.5,3.5,27,0.00,OVC,FEW,0.00,600.0,WeatherDisplay:10.37,2015-01-26 21:25:00,
2015-01-26 13:30:00,57.0,23.3,30.26,ESE,112,4.6,4.6,27,0.00,OVC,FEW,0.00,500.0,WeatherDisplay:10.37,2015-01-26 21:30:00,
2015-01-26 13:35:00,57.7,23.9,30.26,ENE,68,2.3,2.3,27,0.00,OVC,FEW,0.00,500.0,WeatherDisplay:10.37,2015-01-26 21:35:00,
2015-01-26 13:40:00,57.9,23.2,30.26,SSE,158,3.5,3.5,26,0.00,OVC,FEW,0.00,400.0,WeatherDisplay:10.37,2015-01-26 21:40:00,
2015-01-26 13:45:00,57.9,23.2,30.26,ESE,112,2.9,2.9,26,0.00,OVC,FEW,0.00,400.0,WeatherDisplay:10.37,2015-01-26 21:45:00,
2015-01-26 13:50:00,57.9,23.2,30.26,ESE,112,3.5,3.5,26,0.00,OVC,FEW,0.00,400.0,WeatherDisplay:10.37,2015-01-26 21:50:00,
2015-01-26 13:55:00,58.1,23.3,30.26,West,270,3.6,3.6,26,0.00,OVC,FEW,0.00,400.0,WeatherDisplay:10.37,2015-01-26 21:55:00,
2015-01-26 14:00:00,58.5,23.7,30.26,East,90,2.3,2.3,26,0.00,OVC,FEW,0.00,400.0,WeatherDisplay:10.37,2015-01-26 22:00:00,
2015-01-26 14:05:00,58.6,23.8,30.26,ENE,68,2.6,2.6,26,0.00,OVC,FEW,0.00,400.0,WeatherDisplay:10.37,2015-01-26 22:05:00,
2015-01-26 14:10:00,58.5,23.7,30.26,ENE,68,3.5,3.5,26,0.00,OVC,FEW,0.00,400.0,WeatherDisplay:10.37,2015-01-26 22:10:00,
2015-01-26 14:15:00,58.6,23.8,30.26,NNE,22,2.3,2.3,26,0.00,OVC,FEW,0.00,300.0,WeatherDisplay:10.37,2015-01-26 22:15:00,
2015-01-26 14:20:00,58.8,24.0,30.26,SE,135,3.6,3.6,26,0.00,OVC,FEW,0.00,300.0,WeatherDisplay:10.37,2015-01-26 22:20:00,
2015-01-26 14:25:00,59.0,23.2,30.26,SSE,158,1.1,1.1,25,0.00,OVC,FEW,0.00,300.0,WeatherDisplay:10.37,2015-01-26 22:25:00,
2015-01-26 14:30:00,59.4,23.5,30.26,NNE,22,0.0,0.0,25,0.00,OVC,FEW,0.00,300.0,WeatherDisplay:10.37,2015-01-26 22:30:00,
2015-01-26 14:35:00,59.9,23.9,30.26,East,90,2.3,2.3,25,0.00,OVC,FEW,0.00,300.0,WeatherDisplay:10.37,2015-01-26 22:35:00,
2015-01-26 14:40:00,59.7,23.8,30.26,ESE,112,3.5,3.5,25,0.00,OVC,FEW,0.00,300.0,WeatherDisplay:10.37,2015-01-26 22:40:00,
2015-01-26 14:45:00,59.7,23.8,30.26,ESE,112,4.6,4.6,25,0.00,OVC,FEW,0.00,300.0,WeatherDisplay:10.37,2015-01-26 22:45:00,
2015-01-26 14:50:00,59.5,23.6,30.26,ENE,68,2.4,2.6,25,0.00,OVC,FEW,0.00,200.0,WeatherDisplay:10.37,2015-01-26 22:50:00,
2015-01-26 14:55:00,59.0,23.2,30.26,East,90,2.3,2.3,25,0.00,OVC,FEW,0.00,300.0,WeatherDisplay:10.37,2015-01-26 22:55:00,
2015-01-26 15:00:00,59.2,23.3,30.26,ENE,68,2.3,2.3,25,0.00,OVC,FEW,0.00,300.0,WeatherDisplay:10.37,2015-01-26 23:00:00,
2015-01-26 15:05:00,59.2,23.3,30.26,ENE,68,2.9,2.9,25,0.00,OVC,FEW,0.00,200.0,WeatherDisplay:10.37,2015-01-26 23:05:00,
2015-01-26 15:10:00,59.4,23.5,30.26,ESE,112,4.6,4.6,25,0.00,OVC,FEW,0.00,200.0,WeatherDisplay:10.37,2015-01-26 23:10:00,
2015-01-26 15:15:00,59.5,23.6,30.26,NNE,22,2.9,2.9,25,0.00,OVC,FEW,0.00,200.0,WeatherDisplay:10.37,2015-01-26 23:15:00,
2015-01-26 15:20:00,59.4,23.5,30.26,NNW,338,2.3,2.3,25,0.00,OVC,FEW,0.00,200.0,WeatherDisplay:10.37,2015-01-26 23:20:00,
2015-01-26 15:25:00,59.7,23.8,30.26,SSW,202,2.3,2.3,25,0.00,OVC,FEW,0.00,200.0,WeatherDisplay:10.37,2015-01-26 23:25:00,
2015-01-26 15:30:00,59.7,23.8,30.26,ESE,112,2.3,2.3,25,0.00,OVC,FEW,0.00,200.0,WeatherDisplay:10.37,2015-01-26 23:30:00,
2015-01-26 15:35:00,59.4,23.5,30.26,ENE,68,2.3,2.3,25,0.00,OVC,FEW,0.00,200.0,WeatherDisplay:10.37,2015-01-26 23:35:00,
2015-01-26 15:40:00,59.4,23.5,30.26,NNE,22,2.4,2.4,25,0.00,OVC,FEW,0.00,200.0,WeatherDisplay:10.37,2015-01-26 23:40:00,
2015-01-26 15:45:00,59.2,23.3,30.26,West,270,2.3,2.3,25,0.00,OVC,FEW,0.00,200.0,WeatherDisplay:10.37,2015-01-26 23:45:00,
2015-01-26 15:50:00,58.5,22.7,30.26,SW,225,2.3,0.0,25,0.00,OVC,FEW,0.00,100.0,WeatherDisplay:10.37,2015-01-26 23:50:00,
2015-01-26 15:55:00,58.5,22.7,30.26,ESE,112,1.1,0.0,25,0.00,OVC,FEW,0.00,100.0,WeatherDisplay:10.37,2015-01-26 23:55:00,
2015-01-26 16:00:00,57.9,22.3,30.26,NNE,22,0.0,0.0,25,0.00,OVC,FEW,0.00,100.0,WeatherDisplay:10.37,2015-01-27 00:00:00,
2015-01-26 16:05:00,57.6,22.0,30.24,SE,135,0.0,0.0,25,0.00,OVC,FEW,0.00,100.0,WeatherDisplay:10.37,2015-01-27 00:05:00,
2015-01-26 16:10:00,57.2,21.6,30.24,SE,135,0.0,0.0,25,0.00,OVC,FEW,0.00,100.0,WeatherDisplay:10.37,2015-01-27 00:10:00,
2015-01-26 16:15:00,56.8,22.3,30.24,SSE,158,0.0,0.0,26,0.00,OVC,FEW,0.00,100.0,WeatherDisplay:10.37,2015-01-27 00:15:00,
2015-01-26 16:20:00,56.5,22.0,30.24,SSE,158,0.0,0.0,26,0.00,OVC,FEW,0.00,100.0,WeatherDisplay:10.37,2015-01-27 00:20:00,
2015-01-26 16:25:00,56.3,21.8,30.24,South,180,0.0,0.0,26,0.00,OVC,FEW,0.00,0.0,WeatherDisplay:10.37,2015-01-27 00:25:00,
2015-01-26 16:30:00,55.9,21.5,30.24,SSW,202,0.0,0.0,26,0.00,OVC,FEW,0.00,0.0,WeatherDisplay:10.37,2015-01-27 00:30:00,
2015-01-26 16:35:00,55.4,21.0,30.24,SSW,202,0.0,0.0,26,0.00,OVC,FEW,0.00,0.0,WeatherDisplay:10.37,2015-01-27 00:35:00,
2015-01-26 16:40:00,55.2,21.8,30.24,SW,225,0.0,0.0,27,0.00,OVC,FEW,0.00,0.0,WeatherDisplay:10.37,2015-01-27 00:40:00,
2015-01-26 16:45:00,54.9,21.5,30.24,SW,225,0.0,0.0,27,0.00,OVC,FEW,0.00,0.0,WeatherDisplay:10.37,2015-01-27 00:45:00,
2015-01-26 16:50:00,54.5,21.2,30.24,WSW,248,0.0,0.0,27,0.00,OVC,FEW,0.00,0.0,WeatherDisplay:10.37,2015-01-27 00:50:00,
2015-01-26 16:55:00,54.3,21.0,30.24,West,270,0.0,0.0,27,0.00,OVC,FEW,0.00,0.0,WeatherDisplay:10.37,2015-01-27 00:55:00,
2015-01-26 17:00:00,54.1,20.8,30.24,WNW,292,2.3,2.3,27,0.00,OVC,FEW,0.00,0.0,WeatherDisplay:10.37,2015-01-27 01:00:00,
2015-01-26 17:05:00,53.8,21.4,30.24,West,270,2.3,2.3,28,0.00,OVC,FEW,0.00,0.0,WeatherDisplay:10.37,2015-01-27 01:05:00,
2015-01-26 17:10:00,53.4,21.1,30.24,West,270,0.0,0.0,28,0.00,OVC,FEW,0.00,0.0,WeatherDisplay:10.37,2015-01-27 01:10:00,
2015-01-26 17:15:00,52.9,20.6,30.24,West,270,0.0,0.0,28,0.00,OVC,FEW,0.00,0.0,WeatherDisplay:10.37,2015-01-27 01:15:00,
2015-01-26 17:20:00,52.3,21.0,30.26,West,270,0.0,0.0,29,0.00,OVC,FEW,0.00,0.0,WeatherDisplay:10.37,2015-01-27 01:20:00,
2015-01-26 17:25:00,52.0,20.7,30.26,WNW,292,2.4,2.4,29,0.00,OVC,FEW,0.00,0.0,WeatherDisplay:10.37,2015-01-27 01:25:00,
2015-01-26 17:30:00,51.8,20.5,30.26,West,270,0.0,0.0,29,0.00,OVC,FEW,0.00,0.0,WeatherDisplay:10.37,2015-01-27 01:30:00,
2015-01-26 17:35:00,51.4,21.0,30.26,West,270,0.0,0.0,30,0.00,OVC,FEW,0.00,0.0,WeatherDisplay:10.37,2015-01-27 01:35:00,
2015-01-26 17:40:00,51.3,20.0,30.26,WNW,292,1.4,1.4,29,0.00,OVC,FEW,0.00,0.0,WeatherDisplay:10.37,2015-01-27 01:40:00,
2015-01-26 17:45:00,50.7,20.4,30.26,West,270,2.3,2.3,30,0.00,CLR,FEW,0.00,0.0,WeatherDisplay:10.37,2015-01-27 01:45:00,
2015-01-26 17:50:00,50.4,20.1,30.26,West,270,0.0,0.0,30,0.00,CLR,FEW,0.00,0.0,WeatherDisplay:10.37,2015-01-27 01:50:00,
2015-01-26 17:55:00,50.0,19.7,30.26,West,270,0.0,0.0,30,0.00,CLR,FEW,0.00,0.0,WeatherDisplay:10.37,2015-01-27 01:55:00,
2015-01-26 18:00:00,49.5,19.3,30.26,West,270,0.0,0.0,30,0.00,CLR,FEW,0.00,0.0,WeatherDisplay:10.37,2015-01-27 02:00:00,
2015-01-26 18:05:00,49.1,19.7,30.26,West,270,0.0,0.0,31,0.00,CLR,FEW,0.00,0.0,WeatherDisplay:10.37,2015-01-27 02:05:00,
2015-01-26 18:10:00,48.7,19.4,30.26,West,270,0.0,0.0,31,0.00,CLR,FEW,0.00,0.0,WeatherDisplay:10.37,2015-01-27 02:10:00,
2015-01-26 18:15:00,48.4,19.1,30.26,West,270,0.0,0.0,31,0.00,CLR,FEW,0.00,0.0,WeatherDisplay:10.37,2015-01-27 02:15:00,
2015-01-26 18:20:00,48.6,20.0,30.26,WNW,292,3.5,3.5,32,0.00,CLR,FEW,0.00,0.0,WeatherDisplay:10.37,2015-01-27 02:20:00,
2015-01-26 18:25:00,48.7,20.2,30.26,WSW,248,3.5,3.5,32,0.00,CLR,FEW,0.00,0.0,WeatherDisplay:10.37,2015-01-27 02:25:00,
2015-01-26 18:30:00,48.9,20.3,30.26,WNW,292,2.3,2.3,32,0.00,CLR,FEW,0.00,0.0,WeatherDisplay:10.37,2015-01-27 02:30:00,
2015-01-26 18:35:00,48.6,19.3,30.26,WSW,248,0.0,0.0,31,0.00,CLR,FEW,0.00,0.0,WeatherDisplay:10.37,2015-01-27 02:35:00,
2015-01-26 18:40:00,48.4,19.8,30.26,WSW,248,0.0,0.0,32,0.00,CLR,FEW,0.00,0.0,WeatherDisplay:10.37,2015-01-27 02:40:00,
2015-01-26 18:45:00,48.0,19.5,30.26,WSW,248,0.0,0.0,32,0.00,CLR,FEW,0.00,0.0,WeatherDisplay:10.37,2015-01-27 02:45:00,
2015-01-26 18:50:00,47.8,19.4,30.26,WSW,248,0.0,0.0,32,0.00,CLR,FEW,0.00,0.0,WeatherDisplay:10.37,2015-01-27 02:50:00,
2015-01-26 18:55:00,47.5,19.0,30.26,WSW,248,0.0,0.0,32,0.00,CLR,FEW,0.00,0.0,WeatherDisplay:10.37,2015-01-27 02:55:00,
2015-01-26 19:00:00,47.3,18.9,30.26,WSW,248,0.0,0.0,32,0.00,CLR,FEW,0.00,0.0,WeatherDisplay:10.37,2015-01-27 03:00:00,
2015-01-26 19:05:00,47.1,19.5,30.26,SSW,202,0.0,0.0,33,0.00,CLR,FEW,0.00,0.0,WeatherDisplay:10.37,2015-01-27 03:05:00,
2015-01-26 19:10:00,46.6,19.0,30.26,SSW,202,1.4,1.4,33,0.00,CLR,FEW,0.00,0.0,WeatherDisplay:10.37,2015-01-27 03:10:00,
2015-01-26 19:15:00,46.0,20.5,30.26,WNW,292,2.6,0.0,36,0.00,CLR,FEW,0.00,0.0,WeatherDisplay:10.37,2015-01-27 03:15:00,
2015-01-26 19:20:00,45.9,21.0,30.26,West,270,2.3,2.3,37,0.00,CLR,FEW,0.00,0.0,WeatherDisplay:10.37,2015-01-27 03:20:00,
2015-01-26 19:25:00,45.9,21.0,30.26,WNW,292,2.6,2.6,37,0.00,CLR,FEW,0.00,0.0,WeatherDisplay:10.37,2015-01-27 03:25:00,
2015-01-26 19:30:00,45.7,21.5,30.26,West,270,2.4,2.4,38,0.00,CLR,FEW,0.00,0.0,WeatherDisplay:10.37,2015-01-27 03:30:00,
2015-01-26 19:35:00,45.7,21.5,30.26,West,270,2.3,2.3,38,0.00,CLR,FEW,0.00,0.0,WeatherDisplay:10.37,2015-01-27 03:35:00,
2015-01-26 19:40:00,45.5,21.3,30.26,WNW,292,2.6,2.6,38,0.00,CLR,FEW,0.00,0.0,WeatherDisplay:10.37,2015-01-27 03:40:00,